sensor_id;sensor_type;location;lat;lon;timestamp;temperature;humidity
4840;DHT22;2434;48.486;7.964;2023-04-03T00:01:15;5.50;69.20
4840;DHT22;2434;48.486;7.964;2023-04-03T00:03:43;5.60;68.20
4840;DHT22;2434;48.486;7.964;2023-04-03T00:06:12;5.60;67.50
4840;DHT22;2434;48.486;7.964;2023-04-03T00:08:41;5.90;67.60
4840;DHT22;2434;48.486;7.964;2023-04-03T00:11:10;5.80;66.40
4840;DHT22;2434;48.486;7.964;2023-04-03T00:13:38;5.50;66.60
4840;DHT22;2434;48.486;7.964;2023-04-03T00:16:07;5.50;67.90
4840;DHT22;2434;48.486;7.964;2023-04-03T00:18:36;5.40;71.40
4840;DHT22;2434;48.486;7.964;2023-04-03T00:21:05;5.40;71.00
4840;DHT22;2434;48.486;7.964;2023-04-03T00:23:34;5.40;71.10
4840;DHT22;2434;48.486;7.964;2023-04-03T00:26:03;5.30;68.90
4840;DHT22;2434;48.486;7.964;2023-04-03T00:28:32;5.40;69.60
4840;DHT22;2434;48.486;7.964;2023-04-03T00:31:00;5.40;70.00
4840;DHT22;2434;48.486;7.964;2023-04-03T00:33:28;5.30;70.70
4840;DHT22;2434;48.486;7.964;2023-04-03T00:35:56;5.50;70.10
4840;DHT22;2434;48.486;7.964;2023-04-03T00:38:25;5.40;70.10
4840;DHT22;2434;48.486;7.964;2023-04-03T00:40:53;5.30;70.30
4840;DHT22;2434;48.486;7.964;2023-04-03T00:43:24;5.40;72.20
4840;DHT22;2434;48.486;7.964;2023-04-03T00:45:54;5.30;73.50
4840;DHT22;2434;48.486;7.964;2023-04-03T00:48:26;5.40;72.50
4840;DHT22;2434;48.486;7.964;2023-04-03T00:50:57;5.30;71.80
4840;DHT22;2434;48.486;7.964;2023-04-03T00:53:29;5.40;71.60
4840;DHT22;2434;48.486;7.964;2023-04-03T00:55:59;5.40;71.20
4840;DHT22;2434;48.486;7.964;2023-04-03T00:58:33;5.50;70.60
4840;DHT22;2434;48.486;7.964;2023-04-03T01:01:06;5.40;69.00
4840;DHT22;2434;48.486;7.964;2023-04-03T01:03:35;5.40;70.30
4840;DHT22;2434;48.486;7.964;2023-04-03T01:06:05;5.30;72.10
4840;DHT22;2434;48.486;7.964;2023-04-03T01:08:34;5.30;70.30
4840;DHT22;2434;48.486;7.964;2023-04-03T01:11:03;5.20;71.40
4840;DHT22;2434;48.486;7.964;2023-04-03T01:13:33;5.20;71.60
4840;DHT22;2434;48.486;7.964;2023-04-03T01:16:04;5.20;70.70
4840;DHT22;2434;48.486;7.964;2023-04-03T01:18:34;5.30;69.40
4840;DHT22;2434;48.486;7.964;2023-04-03T01:24:22;5.30;68.30
4840;DHT22;2434;48.486;7.964;2023-04-03T01:26:54;5.30;70.60
4840;DHT22;2434;48.486;7.964;2023-04-03T01:29:24;5.40;70.10
4840;DHT22;2434;48.486;7.964;2023-04-03T01:31:55;5.50;69.00
4840;DHT22;2434;48.486;7.964;2023-04-03T01:34:24;5.40;68.90
4840;DHT22;2434;48.486;7.964;2023-04-03T01:36:52;5.60;68.90
4840;DHT22;2434;48.486;7.964;2023-04-03T01:39:21;5.60;68.40
4840;DHT22;2434;48.486;7.964;2023-04-03T01:41:50;5.60;68.40
4840;DHT22;2434;48.486;7.964;2023-04-03T01:44:40;5.60;69.50
4840;DHT22;2434;48.486;7.964;2023-04-03T01:47:10;5.50;70.10
4840;DHT22;2434;48.486;7.964;2023-04-03T01:49:40;5.30;69.50
4840;DHT22;2434;48.486;7.964;2023-04-03T01:52:08;5.20;70.90
4840;DHT22;2434;48.486;7.964;2023-04-03T01:54:36;5.00;70.50
4840;DHT22;2434;48.486;7.964;2023-04-03T01:57:05;5.10;71.20
4840;DHT22;2434;48.486;7.964;2023-04-03T01:59:33;5.00;71.60
4840;DHT22;2434;48.486;7.964;2023-04-03T02:02:01;5.20;70.40
4840;DHT22;2434;48.486;7.964;2023-04-03T02:04:31;5.20;70.00
4840;DHT22;2434;48.486;7.964;2023-04-03T02:07:00;5.30;70.20
4840;DHT22;2434;48.486;7.964;2023-04-03T02:09:28;5.30;69.90
4840;DHT22;2434;48.486;7.964;2023-04-03T02:11:56;5.20;69.10
4840;DHT22;2434;48.486;7.964;2023-04-03T02:14:24;5.10;69.60
4840;DHT22;2434;48.486;7.964;2023-04-03T02:16:54;5.20;69.70
4840;DHT22;2434;48.486;7.964;2023-04-03T02:19:23;5.00;69.30
4840;DHT22;2434;48.486;7.964;2023-04-03T02:21:52;5.00;68.80
4840;DHT22;2434;48.486;7.964;2023-04-03T02:24:20;5.00;69.70
4840;DHT22;2434;48.486;7.964;2023-04-03T02:26:49;4.80;70.20
4840;DHT22;2434;48.486;7.964;2023-04-03T02:29:17;4.90;69.60
4840;DHT22;2434;48.486;7.964;2023-04-03T02:31:45;5.00;69.40
4840;DHT22;2434;48.486;7.964;2023-04-03T02:34:14;5.00;69.30
4840;DHT22;2434;48.486;7.964;2023-04-03T02:36:44;5.10;69.10
4840;DHT22;2434;48.486;7.964;2023-04-03T02:39:14;5.30;68.80
4840;DHT22;2434;48.486;7.964;2023-04-03T02:41:43;5.40;68.50
4840;DHT22;2434;48.486;7.964;2023-04-03T02:44:18;5.50;68.30
4840;DHT22;2434;48.486;7.964;2023-04-03T02:46:46;5.50;68.00
4840;DHT22;2434;48.486;7.964;2023-04-03T02:49:14;5.40;67.80
4840;DHT22;2434;48.486;7.964;2023-04-03T02:51:42;5.40;67.40
4840;DHT22;2434;48.486;7.964;2023-04-03T02:54:11;5.40;67.00
4840;DHT22;2434;48.486;7.964;2023-04-03T02:56:47;5.50;67.60
4840;DHT22;2434;48.486;7.964;2023-04-03T02:59:16;5.50;67.70
4840;DHT22;2434;48.486;7.964;2023-04-03T03:01:44;5.60;67.30
4840;DHT22;2434;48.486;7.964;2023-04-03T03:04:12;5.50;67.60
4840;DHT22;2434;48.486;7.964;2023-04-03T03:06:40;5.40;67.30
4840;DHT22;2434;48.486;7.964;2023-04-03T03:09:10;5.40;68.30
4840;DHT22;2434;48.486;7.964;2023-04-03T03:11:42;5.50;68.30
4840;DHT22;2434;48.486;7.964;2023-04-03T03:14:11;5.50;67.90
4840;DHT22;2434;48.486;7.964;2023-04-03T03:16:39;5.60;67.90
4840;DHT22;2434;48.486;7.964;2023-04-03T03:19:08;5.60;67.60
4840;DHT22;2434;48.486;7.964;2023-04-03T03:21:37;5.70;67.40
4840;DHT22;2434;48.486;7.964;2023-04-03T03:24:05;5.70;65.50
4840;DHT22;2434;48.486;7.964;2023-04-03T03:26:34;5.50;66.80
4840;DHT22;2434;48.486;7.964;2023-04-03T03:29:03;5.50;66.90
4840;DHT22;2434;48.486;7.964;2023-04-03T03:31:33;5.20;68.20
4840;DHT22;2434;48.486;7.964;2023-04-03T03:34:01;5.30;68.50
4840;DHT22;2434;48.486;7.964;2023-04-03T03:36:29;5.40;68.30
4840;DHT22;2434;48.486;7.964;2023-04-03T03:38:58;5.50;67.60
4840;DHT22;2434;48.486;7.964;2023-04-03T03:41:26;5.70;67.40
4840;DHT22;2434;48.486;7.964;2023-04-03T03:43:54;5.80;66.40
4840;DHT22;2434;48.486;7.964;2023-04-03T03:46:23;5.80;65.90
4840;DHT22;2434;48.486;7.964;2023-04-03T03:48:54;5.70;66.30
4840;DHT22;2434;48.486;7.964;2023-04-03T03:51:22;5.80;65.80
4840;DHT22;2434;48.486;7.964;2023-04-03T03:53:51;5.80;64.60
4840;DHT22;2434;48.486;7.964;2023-04-03T03:56:19;5.80;65.30
4840;DHT22;2434;48.486;7.964;2023-04-03T03:58:48;5.70;63.80
4840;DHT22;2434;48.486;7.964;2023-04-03T04:01:17;5.50;66.20
4840;DHT22;2434;48.486;7.964;2023-04-03T04:03:47;5.30;67.40
4840;DHT22;2434;48.486;7.964;2023-04-03T04:06:21;5.20;67.10
4840;DHT22;2434;48.486;7.964;2023-04-03T04:08:51;5.10;67.30
4840;DHT22;2434;48.486;7.964;2023-04-03T04:11:19;5.30;67.40
4840;DHT22;2434;48.486;7.964;2023-04-03T04:13:49;5.40;67.10
4840;DHT22;2434;48.486;7.964;2023-04-03T04:16:19;5.30;66.60
4840;DHT22;2434;48.486;7.964;2023-04-03T04:18:48;4.90;67.50
4840;DHT22;2434;48.486;7.964;2023-04-03T04:21:18;5.00;68.00
4840;DHT22;2434;48.486;7.964;2023-04-03T04:23:49;4.90;65.90
4840;DHT22;2434;48.486;7.964;2023-04-03T04:26:17;4.80;68.20
4840;DHT22;2434;48.486;7.964;2023-04-03T04:28:45;4.90;68.70
4840;DHT22;2434;48.486;7.964;2023-04-03T04:31:14;5.00;68.50
4840;DHT22;2434;48.486;7.964;2023-04-03T04:33:42;5.00;67.50
4840;DHT22;2434;48.486;7.964;2023-04-03T04:36:12;5.20;66.80
4840;DHT22;2434;48.486;7.964;2023-04-03T04:38:44;5.30;65.90
4840;DHT22;2434;48.486;7.964;2023-04-03T04:41:14;5.10;67.80
4840;DHT22;2434;48.486;7.964;2023-04-03T04:43:44;4.90;67.70
4840;DHT22;2434;48.486;7.964;2023-04-03T04:46:12;4.90;67.70
4840;DHT22;2434;48.486;7.964;2023-04-03T04:48:45;5.10;68.40
4840;DHT22;2434;48.486;7.964;2023-04-03T04:51:17;5.00;67.20
4840;DHT22;2434;48.486;7.964;2023-04-03T04:53:45;5.20;67.50
4840;DHT22;2434;48.486;7.964;2023-04-03T04:56:17;5.20;66.10
4840;DHT22;2434;48.486;7.964;2023-04-03T04:58:46;5.00;68.30
4840;DHT22;2434;48.486;7.964;2023-04-03T05:01:16;5.10;67.50
4840;DHT22;2434;48.486;7.964;2023-04-03T05:03:53;5.40;66.70
4840;DHT22;2434;48.486;7.964;2023-04-03T05:06:23;5.20;66.80
4840;DHT22;2434;48.486;7.964;2023-04-03T05:08:52;5.10;67.20
4840;DHT22;2434;48.486;7.964;2023-04-03T05:11:24;5.00;66.70
4840;DHT22;2434;48.486;7.964;2023-04-03T05:13:52;5.10;66.80
4840;DHT22;2434;48.486;7.964;2023-04-03T05:16:22;4.80;66.10
4840;DHT22;2434;48.486;7.964;2023-04-03T05:18:50;4.70;67.30
4840;DHT22;2434;48.486;7.964;2023-04-03T05:21:21;4.50;68.40
4840;DHT22;2434;48.486;7.964;2023-04-03T05:23:51;4.60;69.30
4840;DHT22;2434;48.486;7.964;2023-04-03T05:26:20;4.30;70.40
4840;DHT22;2434;48.486;7.964;2023-04-03T05:28:51;4.40;71.20
4840;DHT22;2434;48.486;7.964;2023-04-03T05:31:20;4.50;72.60
4840;DHT22;2434;48.486;7.964;2023-04-03T05:33:49;4.40;71.30
4840;DHT22;2434;48.486;7.964;2023-04-03T05:36:18;4.60;70.40
4840;DHT22;2434;48.486;7.964;2023-04-03T05:38:51;4.50;71.50
4840;DHT22;2434;48.486;7.964;2023-04-03T05:41:19;4.60;70.20
4840;DHT22;2434;48.486;7.964;2023-04-03T05:43:50;4.40;70.30
4840;DHT22;2434;48.486;7.964;2023-04-03T05:46:20;4.20;72.10
4840;DHT22;2434;48.486;7.964;2023-04-03T05:48:53;4.10;72.20
4840;DHT22;2434;48.486;7.964;2023-04-03T05:51:25;4.20;70.60
4840;DHT22;2434;48.486;7.964;2023-04-03T05:54:04;4.20;70.70
4840;DHT22;2434;48.486;7.964;2023-04-03T05:56:35;4.20;72.50
4840;DHT22;2434;48.486;7.964;2023-04-03T05:59:06;4.20;70.30
4840;DHT22;2434;48.486;7.964;2023-04-03T06:01:34;4.20;73.50
4840;DHT22;2434;48.486;7.964;2023-04-03T06:04:02;4.20;71.90
4840;DHT22;2434;48.486;7.964;2023-04-03T06:06:43;4.40;70.30
4840;DHT22;2434;48.486;7.964;2023-04-03T06:09:12;4.60;66.20
4840;DHT22;2434;48.486;7.964;2023-04-03T06:11:40;4.70;65.10
4840;DHT22;2434;48.486;7.964;2023-04-03T06:14:11;4.70;65.60
4840;DHT22;2434;48.486;7.964;2023-04-03T06:16:39;4.80;66.30
4840;DHT22;2434;48.486;7.964;2023-04-03T06:19:07;5.00;64.10
4840;DHT22;2434;48.486;7.964;2023-04-03T06:21:39;5.20;64.20
4840;DHT22;2434;48.486;7.964;2023-04-03T06:24:14;5.30;62.70
4840;DHT22;2434;48.486;7.964;2023-04-03T06:26:42;5.40;56.60
4840;DHT22;2434;48.486;7.964;2023-04-03T06:29:12;5.40;54.50
4840;DHT22;2434;48.486;7.964;2023-04-03T06:31:40;5.50;56.50
4840;DHT22;2434;48.486;7.964;2023-04-03T06:34:08;5.60;56.00
4840;DHT22;2434;48.486;7.964;2023-04-03T06:36:39;5.70;55.00
4840;DHT22;2434;48.486;7.964;2023-04-03T06:39:09;5.80;55.40
4840;DHT22;2434;48.486;7.964;2023-04-03T06:41:40;5.80;53.40
4840;DHT22;2434;48.486;7.964;2023-04-03T06:44:08;5.90;54.80
4840;DHT22;2434;48.486;7.964;2023-04-03T06:46:39;5.90;54.80
4840;DHT22;2434;48.486;7.964;2023-04-03T06:49:07;5.90;52.10
4840;DHT22;2434;48.486;7.964;2023-04-03T06:51:36;6.00;52.00
4840;DHT22;2434;48.486;7.964;2023-04-03T06:54:06;6.00;51.80
4840;DHT22;2434;48.486;7.964;2023-04-03T06:56:35;6.10;52.10
4840;DHT22;2434;48.486;7.964;2023-04-03T06:59:03;6.10;50.40
4840;DHT22;2434;48.486;7.964;2023-04-03T07:01:31;6.10;48.80
4840;DHT22;2434;48.486;7.964;2023-04-03T07:04:01;6.10;48.80
4840;DHT22;2434;48.486;7.964;2023-04-03T07:06:30;6.20;51.30
4840;DHT22;2434;48.486;7.964;2023-04-03T07:08:59;6.30;47.80
4840;DHT22;2434;48.486;7.964;2023-04-03T07:11:27;6.40;46.10
4840;DHT22;2434;48.486;7.964;2023-04-03T07:13:56;6.40;47.50
4840;DHT22;2434;48.486;7.964;2023-04-03T07:16:24;6.50;46.00
4840;DHT22;2434;48.486;7.964;2023-04-03T07:18:52;6.50;45.40
4840;DHT22;2434;48.486;7.964;2023-04-03T07:21:22;6.60;46.30
4840;DHT22;2434;48.486;7.964;2023-04-03T07:23:50;6.60;44.20
4840;DHT22;2434;48.486;7.964;2023-04-03T07:26:18;6.70;44.70
4840;DHT22;2434;48.486;7.964;2023-04-03T07:28:47;6.70;45.20
4840;DHT22;2434;48.486;7.964;2023-04-03T07:31:17;6.70;44.60
4840;DHT22;2434;48.486;7.964;2023-04-03T07:33:45;6.70;45.20
4840;DHT22;2434;48.486;7.964;2023-04-03T07:36:16;6.80;45.50
4840;DHT22;2434;48.486;7.964;2023-04-03T07:38:46;6.90;43.70
4840;DHT22;2434;48.486;7.964;2023-04-03T07:41:16;6.90;42.20
4840;DHT22;2434;48.486;7.964;2023-04-03T07:43:45;6.90;40.60
4840;DHT22;2434;48.486;7.964;2023-04-03T07:46:13;7.00;41.80
4840;DHT22;2434;48.486;7.964;2023-04-03T07:48:42;7.00;41.40
4840;DHT22;2434;48.486;7.964;2023-04-03T07:51:10;7.00;41.30
4840;DHT22;2434;48.486;7.964;2023-04-03T07:53:38;7.10;40.90
4840;DHT22;2434;48.486;7.964;2023-04-03T07:56:08;7.10;40.60
4840;DHT22;2434;48.486;7.964;2023-04-03T07:58:36;7.00;41.30
4840;DHT22;2434;48.486;7.964;2023-04-03T08:01:05;7.00;40.30
4840;DHT22;2434;48.486;7.964;2023-04-03T08:03:33;7.20;40.90
4840;DHT22;2434;48.486;7.964;2023-04-03T08:06:03;7.30;41.80
4840;DHT22;2434;48.486;7.964;2023-04-03T08:08:33;7.40;40.10
4840;DHT22;2434;48.486;7.964;2023-04-03T08:11:02;7.50;40.40
4840;DHT22;2434;48.486;7.964;2023-04-03T08:13:34;7.60;38.00
4840;DHT22;2434;48.486;7.964;2023-04-03T08:16:10;7.70;38.50
4840;DHT22;2434;48.486;7.964;2023-04-03T08:18:39;7.70;36.80
4840;DHT22;2434;48.486;7.964;2023-04-03T08:21:08;7.60;38.90
4840;DHT22;2434;48.486;7.964;2023-04-03T08:23:37;7.60;37.00
4840;DHT22;2434;48.486;7.964;2023-04-03T08:26:07;7.70;36.60
4840;DHT22;2434;48.486;7.964;2023-04-03T08:28:37;7.70;38.90
4840;DHT22;2434;48.486;7.964;2023-04-03T08:31:07;7.90;36.80
4840;DHT22;2434;48.486;7.964;2023-04-03T08:33:38;7.90;38.30
4840;DHT22;2434;48.486;7.964;2023-04-03T08:36:15;8.00;38.30
4840;DHT22;2434;48.486;7.964;2023-04-03T08:38:43;8.00;39.90
4840;DHT22;2434;48.486;7.964;2023-04-03T08:41:15;7.90;40.10
4840;DHT22;2434;48.486;7.964;2023-04-03T08:43:56;8.00;37.80
4840;DHT22;2434;48.486;7.964;2023-04-03T08:46:37;7.70;37.20
4840;DHT22;2434;48.486;7.964;2023-04-03T08:49:11;7.50;40.40
4840;DHT22;2434;48.486;7.964;2023-04-03T08:51:45;7.30;37.70
4840;DHT22;2434;48.486;7.964;2023-04-03T08:54:29;7.50;40.80
4840;DHT22;2434;48.486;7.964;2023-04-03T08:57:03;7.60;40.20
4840;DHT22;2434;48.486;7.964;2023-04-03T08:59:35;7.60;40.40
4840;DHT22;2434;48.486;7.964;2023-04-03T09:02:27;7.70;38.90
4840;DHT22;2434;48.486;7.964;2023-04-03T09:04:57;7.90;39.50
4840;DHT22;2434;48.486;7.964;2023-04-03T09:07:33;8.00;39.10
4840;DHT22;2434;48.486;7.964;2023-04-03T09:10:04;8.10;39.00
4840;DHT22;2434;48.486;7.964;2023-04-03T09:12:36;8.20;35.10
4840;DHT22;2434;48.486;7.964;2023-04-03T09:15:15;8.20;36.60
4840;DHT22;2434;48.486;7.964;2023-04-03T09:17:59;8.30;36.30
4840;DHT22;2434;48.486;7.964;2023-04-03T09:20:38;8.30;33.90
4840;DHT22;2434;48.486;7.964;2023-04-03T09:23:15;7.60;34.40
4840;DHT22;2434;48.486;7.964;2023-04-03T09:25:45;7.50;37.30
4840;DHT22;2434;48.486;7.964;2023-04-03T09:28:13;7.30;35.00
4840;DHT22;2434;48.486;7.964;2023-04-03T09:30:43;7.00;35.30
4840;DHT22;2434;48.486;7.964;2023-04-03T09:33:11;7.00;37.80
4840;DHT22;2434;48.486;7.964;2023-04-03T09:35:41;7.10;36.90
4840;DHT22;2434;48.486;7.964;2023-04-03T09:38:17;7.20;39.40
4840;DHT22;2434;48.486;7.964;2023-04-03T09:40:47;7.50;38.70
4840;DHT22;2434;48.486;7.964;2023-04-03T09:43:34;7.60;37.50
4840;DHT22;2434;48.486;7.964;2023-04-03T09:46:25;7.80;36.40
4840;DHT22;2434;48.486;7.964;2023-04-03T09:48:56;7.90;36.50
4840;DHT22;2434;48.486;7.964;2023-04-03T09:51:35;8.00;35.50
4840;DHT22;2434;48.486;7.964;2023-04-03T09:54:34;8.10;37.00
4840;DHT22;2434;48.486;7.964;2023-04-03T09:57:08;8.20;35.10
4840;DHT22;2434;48.486;7.964;2023-04-03T09:59:43;8.20;35.90
4840;DHT22;2434;48.486;7.964;2023-04-03T10:02:32;8.20;35.70
4840;DHT22;2434;48.486;7.964;2023-04-03T10:05:02;8.30;37.70
4840;DHT22;2434;48.486;7.964;2023-04-03T10:07:34;8.20;37.90
4840;DHT22;2434;48.486;7.964;2023-04-03T10:10:16;7.70;35.00
4840;DHT22;2434;48.486;7.964;2023-04-03T10:12:46;7.90;39.70
4840;DHT22;2434;48.486;7.964;2023-04-03T10:15:16;8.10;39.60
4840;DHT22;2434;48.486;7.964;2023-04-03T10:17:54;8.20;36.80
4840;DHT22;2434;48.486;7.964;2023-04-03T10:20:32;8.30;35.80
4840;DHT22;2434;48.486;7.964;2023-04-03T10:23:15;8.30;36.30
4840;DHT22;2434;48.486;7.964;2023-04-03T10:25:55;8.00;34.20
4840;DHT22;2434;48.486;7.964;2023-04-03T10:28:33;7.90;35.70
4840;DHT22;2434;48.486;7.964;2023-04-03T10:31:08;7.70;36.60
4840;DHT22;2434;48.486;7.964;2023-04-03T10:33:53;7.90;38.70
4840;DHT22;2434;48.486;7.964;2023-04-03T10:36:33;7.90;37.70
4840;DHT22;2434;48.486;7.964;2023-04-03T10:39:10;8.10;38.00
4840;DHT22;2434;48.486;7.964;2023-04-03T10:41:50;8.30;37.90
4840;DHT22;2434;48.486;7.964;2023-04-03T10:44:47;8.00;35.70
4840;DHT22;2434;48.486;7.964;2023-04-03T10:47:21;7.80;39.50
4840;DHT22;2434;48.486;7.964;2023-04-03T10:49:58;7.80;36.10
4840;DHT22;2434;48.486;7.964;2023-04-03T10:52:35;7.90;39.10
4840;DHT22;2434;48.486;7.964;2023-04-03T10:55:18;8.20;39.60
4840;DHT22;2434;48.486;7.964;2023-04-03T10:57:55;8.30;36.90
4840;DHT22;2434;48.486;7.964;2023-04-03T11:00:33;8.40;36.40
4840;DHT22;2434;48.486;7.964;2023-04-03T11:03:08;8.30;34.50
4840;DHT22;2434;48.486;7.964;2023-04-03T11:05:42;8.20;35.10
4840;DHT22;2434;48.486;7.964;2023-04-03T11:08:18;8.30;37.90
4840;DHT22;2434;48.486;7.964;2023-04-03T11:10:50;8.30;37.30
4840;DHT22;2434;48.486;7.964;2023-04-03T11:13:22;8.00;36.70
4840;DHT22;2434;48.486;7.964;2023-04-03T11:15:53;8.10;40.40
4840;DHT22;2434;48.486;7.964;2023-04-03T11:18:26;8.10;36.80
4840;DHT22;2434;48.486;7.964;2023-04-03T11:21:02;8.10;35.50
4840;DHT22;2434;48.486;7.964;2023-04-03T11:23:33;8.30;37.10
4840;DHT22;2434;48.486;7.964;2023-04-03T11:26:17;8.30;37.40
4840;DHT22;2434;48.486;7.964;2023-04-03T11:28:52;8.40;36.10
4840;DHT22;2434;48.486;7.964;2023-04-03T11:31:40;8.50;36.30
4840;DHT22;2434;48.486;7.964;2023-04-03T11:34:22;8.60;34.40
4840;DHT22;2434;48.486;7.964;2023-04-03T11:36:58;8.80;37.00
4840;DHT22;2434;48.486;7.964;2023-04-03T11:39:30;9.10;37.40
4840;DHT22;2434;48.486;7.964;2023-04-03T11:42:15;9.20;35.00
4840;DHT22;2434;48.486;7.964;2023-04-03T11:44:44;9.10;31.70
4840;DHT22;2434;48.486;7.964;2023-04-03T11:47:44;9.20;34.30
4840;DHT22;2434;48.486;7.964;2023-04-03T11:50:37;9.00;33.80
4840;DHT22;2434;48.486;7.964;2023-04-03T11:53:32;8.70;36.70
4840;DHT22;2434;48.486;7.964;2023-04-03T11:56:03;8.60;36.90
4840;DHT22;2434;48.486;7.964;2023-04-03T11:58:33;8.50;37.00
4840;DHT22;2434;48.486;7.964;2023-04-03T12:01:09;8.70;38.00
4840;DHT22;2434;48.486;7.964;2023-04-03T12:04:06;9.00;40.90
4840;DHT22;2434;48.486;7.964;2023-04-03T12:09:59;9.40;35.00
4840;DHT22;2434;48.486;7.964;2023-04-03T12:12:38;9.70;34.20
4840;DHT22;2434;48.486;7.964;2023-04-03T12:15:23;9.80;31.30
4840;DHT22;2434;48.486;7.964;2023-04-03T12:17:51;9.30;30.50
4840;DHT22;2434;48.486;7.964;2023-04-03T12:23:31;9.40;33.40
4840;DHT22;2434;48.486;7.964;2023-04-03T12:26:19;9.40;33.80
4840;DHT22;2434;48.486;7.964;2023-04-03T12:28:49;9.40;33.30
4840;DHT22;2434;48.486;7.964;2023-04-03T12:31:20;9.40;33.30
4840;DHT22;2434;48.486;7.964;2023-04-03T12:34:09;9.20;33.20
4840;DHT22;2434;48.486;7.964;2023-04-03T12:36:48;9.30;33.70
4840;DHT22;2434;48.486;7.964;2023-04-03T12:39:54;9.10;32.10
4840;DHT22;2434;48.486;7.964;2023-04-03T12:42:42;9.10;32.60
4840;DHT22;2434;48.486;7.964;2023-04-03T12:45:17;9.20;32.40
4840;DHT22;2434;48.486;7.964;2023-04-03T12:47:49;9.30;31.90
4840;DHT22;2434;48.486;7.964;2023-04-03T12:50:23;9.30;31.00
4840;DHT22;2434;48.486;7.964;2023-04-03T12:52:57;9.40;32.90
4840;DHT22;2434;48.486;7.964;2023-04-03T12:55:27;9.20;32.10
4840;DHT22;2434;48.486;7.964;2023-04-03T12:57:56;8.80;33.10
4840;DHT22;2434;48.486;7.964;2023-04-03T13:00:31;8.90;34.20
4840;DHT22;2434;48.486;7.964;2023-04-03T13:03:01;8.80;30.30
4840;DHT22;2434;48.486;7.964;2023-04-03T13:05:31;8.50;30.90
4840;DHT22;2434;48.486;7.964;2023-04-03T13:08:05;8.70;30.90
4840;DHT22;2434;48.486;7.964;2023-04-03T13:10:45;8.70;29.80
4840;DHT22;2434;48.486;7.964;2023-04-03T13:13:17;8.70;32.70
4840;DHT22;2434;48.486;7.964;2023-04-03T13:15:47;8.90;34.20
4840;DHT22;2434;48.486;7.964;2023-04-03T13:18:25;9.10;33.40
4840;DHT22;2434;48.486;7.964;2023-04-03T13:20:58;9.20;31.70
4840;DHT22;2434;48.486;7.964;2023-04-03T13:23:27;9.30;30.10
4840;DHT22;2434;48.486;7.964;2023-04-03T13:25:57;9.30;31.20
4840;DHT22;2434;48.486;7.964;2023-04-03T13:28:32;9.30;29.30
4840;DHT22;2434;48.486;7.964;2023-04-03T13:31:07;9.30;32.00
4840;DHT22;2434;48.486;7.964;2023-04-03T13:33:37;9.30;31.00
4840;DHT22;2434;48.486;7.964;2023-04-03T13:36:08;9.40;31.30
4840;DHT22;2434;48.486;7.964;2023-04-03T13:38:41;9.40;31.60
4840;DHT22;2434;48.486;7.964;2023-04-03T13:41:24;9.40;28.20
4840;DHT22;2434;48.486;7.964;2023-04-03T13:43:54;9.30;30.50
4840;DHT22;2434;48.486;7.964;2023-04-03T13:46:35;8.90;30.00
4840;DHT22;2434;48.486;7.964;2023-04-03T13:49:18;9.00;31.50
4840;DHT22;2434;48.486;7.964;2023-04-03T13:51:46;8.90;30.90
4840;DHT22;2434;48.486;7.964;2023-04-03T13:54:32;8.90;30.10
4840;DHT22;2434;48.486;7.964;2023-04-03T13:57:01;9.00;32.70
4840;DHT22;2434;48.486;7.964;2023-04-03T13:59:33;9.20;34.40
4840;DHT22;2434;48.486;7.964;2023-04-03T14:02:17;9.20;31.50
4840;DHT22;2434;48.486;7.964;2023-04-03T14:04:50;9.40;29.60
4840;DHT22;2434;48.486;7.964;2023-04-03T14:07:20;9.30;30.00
4840;DHT22;2434;48.486;7.964;2023-04-03T14:09:49;9.20;30.00
4840;DHT22;2434;48.486;7.964;2023-04-03T14:12:24;9.20;29.10
4840;DHT22;2434;48.486;7.964;2023-04-03T14:14:59;9.30;27.60
4840;DHT22;2434;48.486;7.964;2023-04-03T14:17:29;9.20;29.30
4840;DHT22;2434;48.486;7.964;2023-04-03T14:19:58;9.30;29.10
4840;DHT22;2434;48.486;7.964;2023-04-03T14:22:29;9.20;29.90
4840;DHT22;2434;48.486;7.964;2023-04-03T14:24:58;9.20;29.10
4840;DHT22;2434;48.486;7.964;2023-04-03T14:27:29;9.20;29.30
4840;DHT22;2434;48.486;7.964;2023-04-03T14:29:59;9.20;29.30
4840;DHT22;2434;48.486;7.964;2023-04-03T14:32:29;9.10;28.80
4840;DHT22;2434;48.486;7.964;2023-04-03T14:34:58;9.00;28.00
4840;DHT22;2434;48.486;7.964;2023-04-03T14:37:30;9.00;30.30
4840;DHT22;2434;48.486;7.964;2023-04-03T14:40:01;9.10;31.50
4840;DHT22;2434;48.486;7.964;2023-04-03T14:42:33;9.20;30.00
4840;DHT22;2434;48.486;7.964;2023-04-03T14:45:05;9.30;30.30
4840;DHT22;2434;48.486;7.964;2023-04-03T14:47:36;9.30;29.20
4840;DHT22;2434;48.486;7.964;2023-04-03T14:50:11;9.30;30.00
4840;DHT22;2434;48.486;7.964;2023-04-03T14:52:40;9.20;30.10
4840;DHT22;2434;48.486;7.964;2023-04-03T14:55:11;9.20;29.20
4840;DHT22;2434;48.486;7.964;2023-04-03T14:57:39;9.20;28.60
4840;DHT22;2434;48.486;7.964;2023-04-03T15:00:13;9.10;29.60
4840;DHT22;2434;48.486;7.964;2023-04-03T15:02:43;9.10;30.00
4840;DHT22;2434;48.486;7.964;2023-04-03T15:05:13;8.90;30.40
4840;DHT22;2434;48.486;7.964;2023-04-03T15:07:45;9.00;29.70
4840;DHT22;2434;48.486;7.964;2023-04-03T15:10:16;9.00;30.70
4840;DHT22;2434;48.486;7.964;2023-04-03T15:12:46;8.80;29.30
4840;DHT22;2434;48.486;7.964;2023-04-03T15:15:18;8.60;30.00
4840;DHT22;2434;48.486;7.964;2023-04-03T15:17:50;8.70;29.40
4840;DHT22;2434;48.486;7.964;2023-04-03T15:20:23;8.60;30.20
4840;DHT22;2434;48.486;7.964;2023-04-03T15:22:52;8.70;31.90
4840;DHT22;2434;48.486;7.964;2023-04-03T15:25:20;8.80;31.30
4840;DHT22;2434;48.486;7.964;2023-04-03T15:27:48;8.50;30.00
4840;DHT22;2434;48.486;7.964;2023-04-03T15:30:18;8.50;31.20
4840;DHT22;2434;48.486;7.964;2023-04-03T15:32:48;8.60;33.60
4840;DHT22;2434;48.486;7.964;2023-04-03T15:35:16;8.40;30.10
4840;DHT22;2434;48.486;7.964;2023-04-03T15:37:44;8.60;29.50
4840;DHT22;2434;48.486;7.964;2023-04-03T15:40:13;8.60;28.00
4840;DHT22;2434;48.486;7.964;2023-04-03T15:42:41;8.70;28.90
4840;DHT22;2434;48.486;7.964;2023-04-03T15:45:10;8.80;29.80
4840;DHT22;2434;48.486;7.964;2023-04-03T15:47:39;8.70;26.80
4840;DHT22;2434;48.486;7.964;2023-04-03T15:50:08;8.70;29.40
4840;DHT22;2434;48.486;7.964;2023-04-03T15:52:37;8.60;28.60
4840;DHT22;2434;48.486;7.964;2023-04-03T15:55:05;8.90;29.30
4840;DHT22;2434;48.486;7.964;2023-04-03T15:57:34;8.90;27.80
4840;DHT22;2434;48.486;7.964;2023-04-03T16:00:02;8.70;29.10
4840;DHT22;2434;48.486;7.964;2023-04-03T16:02:33;8.70;29.90
4840;DHT22;2434;48.486;7.964;2023-04-03T16:05:03;8.80;27.20
4840;DHT22;2434;48.486;7.964;2023-04-03T16:07:32;8.70;27.80
4840;DHT22;2434;48.486;7.964;2023-04-03T16:10:00;8.80;29.00
4840;DHT22;2434;48.486;7.964;2023-04-03T16:12:28;8.80;27.50
4840;DHT22;2434;48.486;7.964;2023-04-03T16:14:57;8.90;27.60
4840;DHT22;2434;48.486;7.964;2023-04-03T16:17:25;8.90;27.20
4840;DHT22;2434;48.486;7.964;2023-04-03T16:19:54;8.90;28.10
4840;DHT22;2434;48.486;7.964;2023-04-03T16:22:25;8.80;26.30
4840;DHT22;2434;48.486;7.964;2023-04-03T16:24:54;8.70;27.60
4840;DHT22;2434;48.486;7.964;2023-04-03T16:27:23;8.80;26.80
4840;DHT22;2434;48.486;7.964;2023-04-03T16:29:54;8.60;24.80
4840;DHT22;2434;48.486;7.964;2023-04-03T16:32:23;8.60;28.00
4840;DHT22;2434;48.486;7.964;2023-04-03T16:34:53;8.60;29.20
4840;DHT22;2434;48.486;7.964;2023-04-03T16:37:22;8.50;28.60
4840;DHT22;2434;48.486;7.964;2023-04-03T16:39:53;8.50;28.90
4840;DHT22;2434;48.486;7.964;2023-04-03T16:42:21;8.50;27.90
4840;DHT22;2434;48.486;7.964;2023-04-03T16:44:49;8.40;29.80
4840;DHT22;2434;48.486;7.964;2023-04-03T16:47:18;8.40;29.20
4840;DHT22;2434;48.486;7.964;2023-04-03T16:49:47;8.60;29.90
4840;DHT22;2434;48.486;7.964;2023-04-03T16:52:15;8.60;29.10
4840;DHT22;2434;48.486;7.964;2023-04-03T16:54:43;8.80;30.70
4840;DHT22;2434;48.486;7.964;2023-04-03T16:57:13;8.80;28.50